Time;durP1;ratioP1;P1;durP2;ratioP2;P2;SDS_P1;SDS_P2;PMS_P1;PMS_P2;Temp;Humidity;BMP_temperature;BMP_pressure;BME280_temperature;BME280_humidity;BME280_pressure;Samples;Min_cycle;Max_cycle;Signal;HPM_P1;HPM_P2
2021/12/22 00:00:15;;;;;;;24.70;11.13;;;;;;;-145.69;100.00;74177.22;5056849;28;20199;-78
2021/12/22 00:02:46;;;;;;;31.90;12.50;;;;;;;-145.69;100.00;74175.22;5056723;28;20658;-78
2021/12/22 00:05:15;;;;;;;30.80;12.20;;;;;;;-145.69;100.00;74189.19;5056873;28;20204;-78
2021/12/22 00:07:42;;;;;;;27.13;12.13;;;;;;;-145.69;100.00;74161.28;5056839;28;20597;-79
2021/12/22 00:10:09;;;;;;;27.97;12.40;;;;;;;-145.69;100.00;74167.28;5056763;28;20210;-78
2021/12/22 00:12:35;;;;;;;27.50;12.03;;;;;;;-145.69;100.00;74185.19;5056582;28;20242;-78
2021/12/22 00:15:02;;;;;;;34.30;13.20;;;;;;;-145.69;100.00;74185.19;5056623;28;20199;-78
2021/12/22 00:17:28;;;;;;;33.07;13.43;;;;;;;-145.69;100.00;74173.25;5056370;28;20253;-77
2021/12/22 00:19:57;;;;;;;34.20;12.77;;;;;;;-145.69;100.00;74183.19;5056137;28;20199;-78
2021/12/22 00:22:24;;;;;;;32.23;12.63;;;;;;;-145.69;100.00;74209.09;5056579;28;20253;-78
2021/12/22 00:24:51;;;;;;;27.07;12.33;;;;;;;-145.69;100.00;74240.94;5056405;28;20210;-78
2021/12/22 00:27:17;;;;;;;30.17;12.70;;;;;;;-145.69;100.00;74236.97;5056345;28;20199;-78
2021/12/22 00:29:48;;;;;;;31.33;13.73;;;;;;;-145.69;100.00;74209.09;5056221;28;20677;-78
2021/12/22 00:32:16;;;;;;;38.43;14.63;;;;;;;-145.69;100.00;74191.16;5056160;28;20210;-78
2021/12/22 00:34:47;;;;;;;34.07;14.53;;;;;;;-145.69;100.00;74191.16;5056394;28;20298;-77
2021/12/22 00:37:18;;;;;;;35.33;13.83;;;;;;;-145.69;100.00;74205.09;5056348;28;20206;-78
2021/12/22 00:39:45;;;;;;;36.37;13.63;;;;;;;-145.69;100.00;74211.06;5056219;28;20230;-78
2021/12/22 00:42:13;;;;;;;32.40;13.10;;;;;;;-145.69;100.00;74201.13;5056047;28;20206;-78
2021/12/22 00:44:40;;;;;;;28.30;12.23;;;;;;;-145.69;100.00;74221.03;5056061;28;20234;-78
2021/12/22 00:47:07;;;;;;;41.90;13.27;;;;;;;-145.69;100.00;74238.97;5055878;28;20682;-78
2021/12/22 00:49:34;;;;;;;36.27;13.67;;;;;;;-145.69;100.00;74256.88;5055715;28;20203;-78
2021/12/22 00:52:01;;;;;;;31.83;12.37;;;;;;;-145.69;100.00;74268.81;5055940;28;20257;-78
2021/12/22 00:54:29;;;;;;;33.97;13.57;;;;;;;-145.69;100.00;74272.81;5055837;28;20620;-78
2021/12/22 00:57:00;;;;;;;31.63;13.40;;;;;;;-145.69;100.00;74290.72;5055693;28;20258;-78
2021/12/22 00:59:27;;;;;;;33.33;12.50;;;;;;;-145.69;100.00;74304.66;5055447;28;20686;-78
2021/12/22 01:01:54;;;;;;;30.27;12.10;;;;;;;-145.69;100.00;74300.69;5055966;28;20210;-78
2021/12/22 01:04:20;;;;;;;31.63;12.73;;;;;;;-145.69;100.00;74306.66;5055752;28;20199;-78
2021/12/22 01:06:47;;;;;;;27.23;12.50;;;;;;;-145.69;100.00;74314.63;5055455;28;20659;-78
2021/12/22 01:09:13;;;;;;;30.47;11.33;;;;;;;-145.69;100.00;74332.53;5055674;28;20203;-78
2021/12/22 01:11:41;;;;;;;26.63;11.93;;;;;;;-145.69;100.00;74284.75;5055419;28;20207;-78
2021/12/22 01:14:08;;;;;;;27.50;11.87;;;;;;;-145.69;100.00;74296.69;5055243;28;20235;-78
2021/12/22 01:16:35;;;;;;;32.90;11.87;;;;;;;-145.69;100.00;74292.72;5055295;28;20654;-78
2021/12/22 01:19:05;;;;;;;31.43;12.40;;;;;;;-145.69;100.00;74274.78;5055128;28;20215;-78
2021/12/22 01:21:39;;;;;;;28.17;11.97;;;;;;;-145.69;100.00;74274.78;5055390;28;20562;-78
2021/12/22 01:24:15;;;;;;;37.33;14.23;;;;;;;-145.69;100.00;74250.91;5055322;28;20269;-78
2021/12/22 01:26:50;;;;;;;39.53;15.23;;;;;;;-145.69;100.00;74209.09;5055182;28;20887;-78
2021/12/22 01:29:17;;;;;;;36.17;14.57;;;;;;;-145.69;100.00;74223.03;5055278;28;20218;-78
2021/12/22 01:31:43;;;;;;;39.60;15.83;;;;;;;-145.69;100.00;74268.81;5055201;28;20200;-78
2021/12/22 01:34:10;;;;;;;36.80;13.47;;;;;;;-145.69;100.00;74276.78;5055056;28;20268;-77
2021/12/22 01:36:37;;;;;;;40.20;15.83;;;;;;;-145.69;100.00;74272.81;5055011;28;20214;-78
2021/12/22 01:39:06;;;;;;;36.00;13.90;;;;;;;-145.69;100.00;74286.75;5054822;28;20234;-78
2021/12/22 01:41:32;;;;;;;35.57;13.33;;;;;;;-145.69;100.00;74276.78;5055036;28;20210;-78
2021/12/22 01:44:00;;;;;;;34.80;13.47;;;;;;;-145.69;100.00;74296.69;5054820;28;20566;-78
2021/12/22 01:49:49;;;;;;;35.63;12.07;;;;;;;-145.69;100.00;74356.44;5032803;28;20206;-79
2021/12/22 01:52:15;;;;;;;26.70;11.50;;;;;;;-145.69;100.00;74370.38;5034788;28;20666;-78
2021/12/22 01:54:48;;;;;;;27.70;11.23;;;;;;;-145.69;100.00;74390.28;5034859;28;20204;-78
2021/12/22 01:57:16;;;;;;;30.17;12.43;;;;;;;-145.69;100.00;74400.25;5034857;28;20540;-77
2021/12/22 01:59:47;;;;;;;31.50;12.20;;;;;;;-145.69;100.00;74408.22;5034492;28;20694;-78
2021/12/22 02:02:16;;;;;;;27.13;12.70;;;;;;;-145.69;100.00;74404.22;5034848;28;20242;-77
2021/12/22 02:04:43;;;;;;;37.63;13.80;;;;;;;-145.69;100.00;74376.34;5034660;28;20250;-78
2021/12/22 02:07:10;;;;;;;34.13;13.20;;;;;;;-145.69;100.00;74352.47;5034502;28;20663;-78
2021/12/22 02:09:57;;;;;;;33.57;12.77;;;;;;;-145.69;100.00;74380.34;5034571;28;20204;-79
2021/12/22 02:12:26;;;;;;;32.47;12.90;;;;;;;-145.69;100.00;74372.38;5034225;28;20327;-78
2021/12/22 02:14:54;;;;;;;40.70;14.33;;;;;;;-145.69;100.00;74392.28;5034557;28;20200;-78
2021/12/22 02:17:21;;;;;;;33.50;12.60;;;;;;;-145.69;100.00;74416.19;5033897;28;20239;-77
2021/12/22 02:19:49;;;;;;;35.93;13.50;;;;;;;-145.69;100.00;74412.19;5049043;28;20227;-77
2021/12/22 02:22:17;;;;;;;29.07;13.00;;;;;;;-145.69;100.00;74412.19;5054081;28;20700;-77
2021/12/22 02:24:46;;;;;;;35.20;13.27;;;;;;;-145.69;100.00;74352.47;5054005;28;20210;-77
2021/12/22 02:27:22;;;;;;;43.10;15.07;;;;;;;-145.69;100.00;74328.56;5054154;28;20204;-78
2021/12/22 02:29:49;;;;;;;39.30;13.97;;;;;;;-145.69;100.00;74340.50;5054168;28;20203;-77
2021/12/22 02:32:34;;;;;;;42.53;14.10;;;;;;;-145.69;100.00;74352.47;5054009;28;20207;-77
2021/12/22 02:35:04;;;;;;;43.07;14.10;;;;;;;-145.69;100.00;74368.38;5053894;28;20199;-78
2021/12/22 02:37:41;;;;;;;30.73;12.37;;;;;;;-145.69;100.00;74362.41;5053698;28;20647;-78
2021/12/22 02:40:12;;;;;;;35.90;13.10;;;;;;;-145.69;100.00;74390.28;5054086;28;20231;-77
2021/12/22 02:42:39;;;;;;;32.53;12.73;;;;;;;-145.69;100.00;74398.25;5054566;28;20285;-77
2021/12/22 02:45:07;;;;;;;28.93;11.60;;;;;;;-145.69;100.00;74416.19;5053805;28;20195;-78
2021/12/22 02:47:33;;;;;;;35.07;12.27;;;;;;;-145.69;100.00;74412.19;5053559;28;20211;-77
2021/12/22 02:50:00;;;;;;;34.33;13.30;;;;;;;-145.69;100.00;74412.19;5053576;28;20203;-77
2021/12/22 02:52:35;;;;;;;32.30;12.70;;;;;;;-145.69;100.00;74408.22;5053442;28;20732;-78
2021/12/22 02:55:02;;;;;;;36.63;13.87;;;;;;;-145.69;100.00;74390.28;5053645;28;20199;-78
2021/12/22 02:57:38;;;;;;;40.37;12.40;;;;;;;-145.69;100.00;74386.31;5053258;28;20203;-77
2021/12/22 03:00:28;;;;;;;38.73;14.07;;;;;;;-145.69;100.00;74384.31;5053299;28;20233;-78
2021/12/22 03:03:05;;;;;;;37.73;14.50;;;;;;;-145.69;100.00;74388.31;5053193;28;20195;-77
2021/12/22 03:05:33;;;;;;;39.47;13.60;;;;;;;-145.69;100.00;74348.47;5053412;28;20199;-78
2021/12/22 03:08:01;;;;;;;40.37;14.83;;;;;;;-145.69;100.00;74342.50;5053348;28;20203;-78
2021/12/22 03:10:28;;;;;;;42.50;14.53;;;;;;;-145.69;100.00;74374.38;5053064;28;20207;-78
2021/12/22 03:13:01;;;;;;;39.47;14.13;;;;;;;-145.69;100.00;74400.25;5053134;28;20231;-79
2021/12/22 03:15:27;;;;;;;31.90;13.07;;;;;;;-145.69;100.00;74408.22;5053379;28;20602;-78
2021/12/22 03:17:54;;;;;;;31.93;12.67;;;;;;;-145.69;100.00;74426.13;5052988;28;20200;-77
2021/12/22 03:20:20;;;;;;;37.47;14.73;;;;;;;-145.69;100.00;74398.25;5053113;28;20234;-78
2021/12/22 03:22:47;;;;;;;43.13;14.33;;;;;;;-145.69;100.00;74384.31;5053031;28;20658;-77
2021/12/22 03:25:17;;;;;;;41.40;14.17;;;;;;;-145.69;100.00;74384.31;5052930;28;20211;-78
2021/12/22 03:27:45;;;;;;;45.10;15.97;;;;;;;-145.69;100.00;74362.41;5053118;28;20211;-78
2021/12/22 03:30:13;;;;;;;68.47;26.17;;;;;;;-145.69;100.00;74324.59;5051501;28;20442;-78
2021/12/22 03:32:39;;;;;;;48.13;17.10;;;;;;;-145.69;100.00;74340.50;5053062;28;20214;-78
2021/12/22 03:35:07;;;;;;;42.43;15.40;;;;;;;-145.69;100.00;74338.53;5052939;28;20200;-78
2021/12/22 03:37:34;;;;;;;37.77;14.90;;;;;;;-145.69;100.00;74366.41;5052802;28;20227;-78
2021/12/22 03:40:01;;;;;;;35.47;14.77;;;;;;;-145.69;100.00;74388.31;5052734;28;20571;-78
2021/12/22 03:42:28;;;;;;;40.17;13.57;;;;;;;-145.69;100.00;74362.41;5052973;28;20253;-78
2021/12/22 03:44:55;;;;;;;47.80;15.93;;;;;;;-145.69;100.00;74348.47;5052296;28;20204;-77
2021/12/22 03:47:22;;;;;;;43.57;14.43;;;;;;;-145.69;100.00;74370.38;5052779;28;20207;-78
2021/12/22 03:49:48;;;;;;;48.50;15.20;;;;;;;-145.69;100.00;74366.41;5052709;28;20215;-77
2021/12/22 03:52:15;;;;;;;41.07;15.07;;;;;;;-145.69;100.00;74376.34;5052636;28;20196;-78
2021/12/22 03:54:42;;;;;;;35.70;14.70;;;;;;;-145.69;100.00;74384.31;5052865;28;20226;-77
2021/12/22 03:57:08;;;;;;;37.97;14.90;;;;;;;-145.69;100.00;74382.31;5052813;28;20195;-77
2021/12/22 03:59:36;;;;;;;40.10;14.67;;;;;;;-145.69;100.00;74380.34;5052673;28;20227;-77
2021/12/22 04:02:03;;;;;;;38.13;14.93;;;;;;;-145.69;100.00;74352.47;5052672;28;20217;-77
2021/12/22 04:04:30;;;;;;;39.53;15.17;;;;;;;-145.69;100.00;74366.41;5052597;28;20214;-78
2021/12/22 04:06:56;;;;;;;32.60;13.33;;;;;;;-145.69;100.00;74380.34;5052342;28;20543;-78
2021/12/22 04:09:27;;;;;;;39.43;14.60;;;;;;;-145.69;100.00;74340.50;5052715;28;20256;-78
2021/12/22 04:11:54;;;;;;;39.70;14.67;;;;;;;-145.69;100.00;74348.47;5052517;28;20642;-77
2021/12/22 04:14:21;;;;;;;38.20;13.30;;;;;;;-145.69;100.00;74360.44;5052401;28;20276;-77
2021/12/22 04:16:49;;;;;;;40.23;13.83;;;;;;;-145.69;100.00;74372.38;5052624;28;20242;-77
2021/12/22 04:19:15;;;;;;;43.43;14.10;;;;;;;-145.69;100.00;74372.38;5052080;28;20219;-78
2021/12/22 04:21:41;;;;;;;34.20;13.83;;;;;;;-145.69;100.00;74394.28;5052450;28;20673;-77
2021/12/22 04:24:08;;;;;;;42.20;14.83;;;;;;;-145.69;100.00;74416.19;5052581;28;20602;-78
2021/12/22 04:26:34;;;;;;;34.67;13.77;;;;;;;-145.69;100.00;74428.13;5052610;28;20265;-77
2021/12/22 04:29:01;;;;;;;35.67;13.23;;;;;;;-145.69;100.00;74428.13;5052408;28;20192;-78
2021/12/22 04:31:27;;;;;;;39.50;14.77;;;;;;;-145.69;100.00;74420.16;5052802;28;20199;-78
2021/12/22 04:33:55;;;;;;;37.23;14.13;;;;;;;-145.69;100.00;74388.31;5052226;28;20203;-77
2021/12/22 04:36:22;;;;;;;38.20;14.23;;;;;;;-145.69;100.00;74388.31;5052441;28;20195;-77
2021/12/22 04:38:48;;;;;;;41.33;14.33;;;;;;;-145.69;100.00;74372.38;5052397;28;20195;-77
2021/12/22 04:41:15;;;;;;;49.50;15.30;;;;;;;-145.69;100.00;74370.38;5054603;28;20231;-78
2021/12/22 04:43:46;;;;;;;38.97;13.50;;;;;;;-145.69;100.00;74388.31;5056095;28;20207;-77
2021/12/22 04:46:13;;;;;;;33.67;13.27;;;;;;;-145.69;100.00;74394.28;5056063;28;20199;-78
2021/12/22 04:48:39;;;;;;;38.83;13.70;;;;;;;-145.69;100.00;74408.22;5055629;28;20196;-78
2021/12/22 04:51:22;;;;;;;35.87;14.27;;;;;;;-145.69;100.00;74396.28;5055822;28;20655;-78
2021/12/22 04:53:56;;;;;;;36.30;12.63;;;;;;;-145.69;100.00;74412.19;5055944;28;20613;-78
2021/12/22 04:56:23;;;;;;;33.23;13.70;;;;;;;-145.69;100.00;74424.16;5055720;28;20658;-77
2021/12/22 04:58:49;;;;;;;38.47;14.30;;;;;;;-145.69;100.00;74396.28;5055597;28;20222;-77
2021/12/22 05:01:16;;;;;;;37.20;14.77;;;;;;;-145.69;100.00;74378.34;5055889;28;20590;-77
2021/12/22 05:03:42;;;;;;;40.73;15.13;;;;;;;-145.69;100.00;74404.22;5055758;28;20196;-77
2021/12/22 05:06:12;;;;;;;39.63;15.13;;;;;;;-145.69;100.00;74410.22;5055729;28;20200;-78
2021/12/22 05:08:41;;;;;;;40.90;16.37;;;;;;;-145.69;100.00;74410.22;5055778;28;20432;-77
2021/12/22 05:11:07;;;;;;;46.47;15.80;;;;;;;-145.69;100.00;74420.16;5055480;28;20449;-77
2021/12/22 05:13:35;;;;;;;40.53;15.23;;;;;;;-145.69;100.00;74404.22;5054889;28;20231;-77
2021/12/22 05:16:04;;;;;;;42.87;16.03;;;;;;;-145.69;100.00;74356.44;5055356;28;20257;-77
2021/12/22 05:18:49;;;;;;;48.93;17.17;;;;;;;-145.69;100.00;74344.50;5055447;28;20291;-77
2021/12/22 05:21:17;;;;;;;50.43;15.23;;;;;;;-145.69;100.00;74352.47;5055161;28;20764;-77
2021/12/22 05:23:46;;;;;;;48.83;16.33;;;;;;;-145.69;100.00;74354.44;5055348;28;20593;-77
2021/12/22 05:26:14;;;;;;;43.13;16.67;;;;;;;-145.69;100.00;74368.38;5055159;28;20612;-77
2021/12/22 05:28:43;;;;;;;34.70;13.67;;;;;;;-145.69;100.00;74378.34;5055319;28;20286;-77
2021/12/22 05:31:10;;;;;;;40.33;15.83;;;;;;;-145.69;100.00;74390.28;5055119;28;20654;-77
2021/12/22 05:33:39;;;;;;;43.50;15.57;;;;;;;-145.69;100.00;74384.31;5055078;28;20204;-77
2021/12/22 05:36:07;;;;;;;48.90;16.13;;;;;;;-145.69;100.00;74356.44;5055522;28;20199;-78
2021/12/22 05:38:35;;;;;;;42.07;15.67;;;;;;;-145.69;100.00;74356.44;5054921;28;20666;-77
2021/12/22 05:41:01;;;;;;;45.27;15.53;;;;;;;-145.69;100.00;74360.44;5055048;28;20238;-77
2021/12/22 05:43:30;;;;;;;43.03;15.63;;;;;;;-145.69;100.00;74328.56;5054961;28;20207;-78
2021/12/22 05:46:00;;;;;;;52.67;19.53;;;;;;;-145.69;100.00;74242.94;5054333;28;20200;-77
2021/12/22 05:48:27;;;;;;;48.70;17.37;;;;;;;-145.69;100.00;74256.88;5054606;28;20192;-77
2021/12/22 05:50:57;;;;;;;43.47;15.47;;;;;;;-145.69;100.00;74288.75;5054653;28;20666;-78
2021/12/22 05:53:24;;;;;;;41.40;15.10;;;;;;;-145.69;100.00;74328.56;5054008;28;20199;-77
2021/12/22 05:55:54;;;;;;;44.33;15.17;;;;;;;-145.69;100.00;74352.47;5054247;28;20430;-77
2021/12/22 05:58:27;;;;;;;38.23;15.77;;;;;;;-145.69;100.00;74382.31;5054789;28;20786;-78
2021/12/22 06:00:53;;;;;;;39.07;14.53;;;;;;;-145.69;100.00;74380.34;5054541;28;20238;-77
2021/12/22 06:03:21;;;;;;;40.80;15.00;;;;;;;-145.69;100.00;74364.41;5054476;28;20646;-77
2021/12/22 06:05:48;;;;;;;37.60;14.10;;;;;;;-145.69;100.00;74398.25;5054450;28;20601;-78
2021/12/22 06:08:14;;;;;;;42.10;15.53;;;;;;;-145.69;100.00;74406.22;5054614;28;20234;-76
2021/12/22 06:10:43;;;;;;;40.40;14.73;;;;;;;-145.69;100.00;74432.13;5054470;28;20207;-76
2021/12/22 06:13:12;;;;;;;43.73;15.63;;;;;;;-145.69;100.00;74448.03;5054204;28;20254;-77
2021/12/22 06:15:41;;;;;;;60.37;20.60;;;;;;;-145.69;100.00;74442.06;5054338;28;20199;-76
2021/12/22 06:18:08;;;;;;;76.70;26.63;;;;;;;-145.69;100.00;74444.06;5053856;28;20265;-76
2021/12/22 06:20:38;;;;;;;55.33;20.27;;;;;;;-145.69;100.00;74448.03;5054268;28;20227;-77
2021/12/22 06:23:05;;;;;;;48.87;16.70;;;;;;;-145.69;100.00;74436.09;5054140;28;20195;-77
2021/12/22 06:25:32;;;;;;;40.40;16.10;;;;;;;-145.69;100.00;74434.09;5054063;28;20249;-77
2021/12/22 06:27:58;;;;;;;46.17;15.00;;;;;;;-145.69;100.00;74432.13;5053915;28;20632;-76
2021/12/22 06:30:27;;;;;;;41.27;15.50;;;;;;;-145.69;100.00;74428.13;5053959;28;20204;-77
2021/12/22 06:32:54;;;;;;;124.27;38.27;;;;;;;-145.69;100.00;74432.13;5053836;28;20196;-78
2021/12/22 06:35:24;;;;;;;78.23;27.47;;;;;;;-145.69;100.00;74456.00;5054111;28;20280;-77
2021/12/22 06:37:52;;;;;;;38.70;14.57;;;;;;;-145.69;100.00;74461.97;5053840;28;20678;-77
2021/12/22 06:40:19;;;;;;;40.50;16.10;;;;;;;-145.69;100.00;74444.06;5053872;28;20227;-77
2021/12/22 06:42:46;;;;;;;47.73;16.83;;;;;;;-145.69;100.00;74372.38;5053818;28;20203;-76
2021/12/22 06:45:14;;;;;;;47.37;16.37;;;;;;;-145.69;100.00;74382.31;5053694;28;20199;-77
2021/12/22 06:47:42;;;;;;;45.53;16.20;;;;;;;-145.69;100.00;74414.19;5053872;28;20231;-77
2021/12/22 06:50:10;;;;;;;51.20;15.93;;;;;;;-145.69;100.00;74434.09;5053962;28;20203;-76
2021/12/22 06:52:37;;;;;;;44.23;16.47;;;;;;;-145.69;100.00;74420.16;5053626;28;20204;-77
2021/12/22 06:55:09;;;;;;;50.13;16.83;;;;;;;-145.69;100.00;74426.13;5053655;28;20199;-77
2021/12/22 06:57:37;;;;;;;45.30;17.17;;;;;;;-145.69;100.00;74448.03;5053314;28;20616;-77
2021/12/22 07:00:08;;;;;;;40.67;15.67;;;;;;;-145.69;100.00;74460.00;5053324;28;20698;-77
2021/12/22 07:02:37;;;;;;;62.63;20.90;;;;;;;-145.69;100.00;74483.88;5053535;28;20241;-76
2021/12/22 07:05:07;;;;;;;53.50;19.30;;;;;;;-145.69;100.00;74471.94;5053377;28;20199;-77
2021/12/22 07:07:34;;;;;;;54.60;18.93;;;;;;;-145.69;100.00;74465.97;5053445;28;20249;-77
2021/12/22 07:10:03;;;;;;;43.50;16.20;;;;;;;-145.69;100.00;74471.94;5053137;28;20730;-77
2021/12/22 07:12:30;;;;;;;52.50;21.77;;;;;;;-145.69;100.00;74416.19;5053292;28;20235;-77
2021/12/22 07:14:58;;;;;;;46.97;16.83;;;;;;;-145.69;100.00;74424.16;5053394;28;20207;-77
2021/12/22 07:17:24;;;;;;;41.97;14.87;;;;;;;-145.69;100.00;74436.09;5053017;28;20249;-76
2021/12/22 07:19:54;;;;;;;45.13;15.60;;;;;;;-145.69;100.00;74416.19;5053225;28;20768;-77
2021/12/22 07:22:23;;;;;;;43.67;15.07;;;;;;;-145.69;100.00;74440.09;5053024;28;20610;-77
2021/12/22 07:24:50;;;;;;;38.33;14.37;;;;;;;-145.69;100.00;74456.00;5053019;28;20298;-77
2021/12/22 07:27:16;;;;;;;37.10;14.47;;;;;;;-145.69;100.00;74456.00;5053132;28;20203;-77
2021/12/22 07:29:42;;;;;;;35.07;14.17;;;;;;;-145.69;100.00;74454.03;5052976;28;20203;-77
2021/12/22 07:32:09;;;;;;;52.60;20.27;;;;;;;-145.69;100.00;74452.03;5052937;28;20704;-77
2021/12/22 07:34:43;;;;;;;39.20;14.87;;;;;;;-145.69;100.00;74430.13;5052683;28;20249;-77
2021/12/22 07:37:21;;;;;;;35.37;14.20;;;;;;;-145.69;100.00;74442.06;5052999;28;20324;-76
2021/12/22 07:39:49;;;;;;;42.63;15.77;;;;;;;-145.69;100.00;74412.19;5052842;28;20669;-77
2021/12/22 07:42:17;;;;;;;48.03;16.30;;;;;;;-145.69;100.00;74396.28;5053010;28;20207;-77
2021/12/22 07:44:43;;;;;;;47.67;17.13;;;;;;;-145.69;100.00;74364.41;5052891;28;20249;-77
2021/12/22 07:47:10;;;;;;;58.33;18.13;;;;;;;-145.69;100.00;74368.38;5052616;28;20249;-77
2021/12/22 07:49:37;;;;;;;48.33;15.97;;;;;;;-145.69;100.00;74374.38;5052764;28;20207;-77
2021/12/22 07:52:04;;;;;;;47.20;17.43;;;;;;;-145.69;100.00;74352.47;5052598;28;20257;-77
2021/12/22 07:54:30;;;;;;;47.83;16.60;;;;;;;-145.69;100.00;74336.53;5052892;28;20203;-77
2021/12/22 07:56:58;;;;;;;55.80;17.97;;;;;;;-145.69;100.00;74296.69;5052826;28;20210;-77
2021/12/22 07:59:26;;;;;;;47.87;17.77;;;;;;;-145.69;100.00;74284.75;5052168;28;20195;-76
2021/12/22 08:01:54;;;;;;;50.40;17.37;;;;;;;-145.69;100.00;74300.69;5052480;28;20231;-77
2021/12/22 08:04:21;;;;;;;50.30;16.40;;;;;;;-145.69;100.00;74306.66;5052595;28;20302;-77
2021/12/22 08:06:48;;;;;;;56.33;16.30;;;;;;;-145.69;100.00;74292.72;5052519;28;20195;-76
2021/12/22 08:09:17;;;;;;;42.50;15.80;;;;;;;-145.69;100.00;74296.69;5052745;28;20199;-76
2021/12/22 08:11:50;;;;;;;50.40;21.40;;;;;;;-145.69;100.00;74290.72;5051826;28;20433;-77
2021/12/22 08:14:22;;;;;;;42.37;16.50;;;;;;;-145.69;100.00;74298.69;5052430;28;20231;-78
2021/12/22 08:16:52;;;;;;;47.77;16.13;;;;;;;-145.69;100.00;74296.69;5055648;28;20326;-78
2021/12/22 08:19:20;;;;;;;39.00;15.83;;;;;;;-145.69;100.00;74282.75;5056711;28;20199;-77
2021/12/22 08:21:51;;;;;;;42.33;15.93;;;;;;;-145.69;100.00;74290.72;5056471;28;20280;-78
2021/12/22 08:24:19;;;;;;;45.20;16.03;;;;;;;-145.69;100.00;74292.72;5056547;28;20203;-78
2021/12/22 08:26:47;;;;;;;45.33;16.47;;;;;;;-145.69;100.00;74256.88;5056307;28;20204;-77
2021/12/22 08:29:16;;;;;;;42.43;17.03;;;;;;;-145.69;100.00;74248.91;5056309;28;20203;-77
2021/12/22 08:31:44;;;;;;;46.53;15.93;;;;;;;-145.69;100.00;74244.94;5056467;28;20210;-78
2021/12/22 08:34:16;;;;;;;47.03;16.10;;;;;;;-145.69;100.00;74240.94;5056439;28;20200;-80
2021/12/22 08:39:34;;;;;;;39.93;15.07;;;;;;;-145.69;100.00;74205.09;4999542;28;20700;-78
2021/12/22 08:42:00;;;;;;;42.10;15.67;;;;;;;-145.69;100.00;74193.16;5055952;28;20547;-78
2021/12/22 08:44:33;;;;;;;44.97;16.17;;;;;;;-145.69;100.00;74177.22;5056182;28;20199;-78
2021/12/22 08:47:01;;;;;;;44.63;16.37;;;;;;;-145.69;100.00;74177.22;5055863;28;20198;-77
2021/12/22 08:49:27;;;;;;;42.17;15.67;;;;;;;-145.69;100.00;74179.22;5055899;28;20720;-77
2021/12/22 08:51:57;;;;;;;41.40;15.47;;;;;;;-145.69;100.00;74165.28;5055897;28;20222;-78
2021/12/22 08:54:23;;;;;;;53.03;18.80;;;;;;;-145.69;100.00;74175.22;5055769;28;20623;-78
2021/12/22 08:56:50;;;;;;;51.17;17.97;;;;;;;-145.69;100.00;74181.22;5055912;28;20673;-78
2021/12/22 08:59:17;;;;;;;45.63;15.50;;;;;;;-145.69;100.00;74187.19;5055880;28;20199;-79
2021/12/22 09:01:44;;;;;;;45.77;15.13;;;;;;;-145.69;100.00;74191.16;5055706;28;20586;-77
2021/12/22 09:04:12;;;;;;;40.40;15.30;;;;;;;-145.69;100.00;74189.19;5055713;28;20663;-77
2021/12/22 09:06:39;;;;;;;35.00;14.20;;;;;;;-145.69;100.00;74173.25;5055617;28;20261;-78
2021/12/22 09:09:09;;;;;;;68.23;25.10;;;;;;;-145.69;100.00;74163.28;5055187;28;20192;-77
2021/12/22 09:11:37;;;;;;;43.97;17.40;;;;;;;-145.69;100.00;74153.34;5055417;28;20663;-76
2021/12/22 09:14:06;;;;;;;36.97;16.33;;;;;;;-145.69;100.00;74155.31;5055178;28;20234;-77
2021/12/22 09:16:32;;;;;;;39.50;15.17;;;;;;;-145.69;100.00;74153.34;5055466;28;20208;-77
2021/12/22 09:18:59;;;;;;;42.07;15.17;;;;;;;-145.69;100.00;74153.34;5055209;28;20685;-77
2021/12/22 09:21:27;;;;;;;39.13;15.00;;;;;;;-145.69;100.00;74137.41;5055084;28;20227;-77
2021/12/22 09:23:53;;;;;;;45.43;15.93;;;;;;;-145.69;100.00;74133.41;5055227;28;20677;-76
2021/12/22 09:26:20;;;;;;;40.97;16.57;;;;;;;-145.69;100.00;74109.53;5054710;28;20257;-77
2021/12/22 09:28:46;;;;;;;44.07;18.63;;;;;;;-145.69;100.00;74101.56;5054619;28;20253;-76
2021/12/22 09:31:13;;;;;;;42.87;17.30;;;;;;;-145.69;100.00;74105.53;5055240;28;20688;-76
2021/12/22 09:33:42;;;;;;;41.17;15.80;;;;;;;-145.69;100.00;74105.53;5055267;28;20200;-76
2021/12/22 09:36:10;;;;;;;45.80;17.63;;;;;;;-145.69;100.00;74105.53;5055076;28;20344;-76
2021/12/22 09:38:38;;;;;;;42.17;15.53;;;;;;;-145.69;100.00;74089.63;5054857;28;20195;-77
2021/12/22 09:41:07;;;;;;;37.57;15.90;;;;;;;-145.69;100.00;74085.63;5055076;28;20269;-77
2021/12/22 09:43:40;;;;;;;42.23;16.23;;;;;;;-145.69;100.00;74069.69;5054906;28;20203;-77
2021/12/22 09:46:17;;;;;;;43.53;15.60;;;;;;;-145.69;100.00;74051.78;5054942;28;20317;-76
2021/12/22 09:48:57;;;;;;;50.83;17.20;;;;;;;-145.69;100.00;74029.88;5054847;28;20199;-77
2021/12/22 09:54:12;;;;;;;42.20;17.17;;;;;;;-145.69;100.00;73988.06;5054938;28;20206;-76
2021/12/22 09:56:42;;;;;;;47.80;17.30;;;;;;;-145.69;100.00;73970.16;5054904;28;20203;-76
2021/12/22 09:59:09;;;;;;;45.63;16.80;;;;;;;-145.69;100.00;73940.28;5054976;28;20199;-76
2021/12/22 10:01:36;;;;;;;51.95;22.05;;;;;;;-145.69;100.00;73940.28;5053280;28;20815;-77
2021/12/22 10:04:02;;;;;;;42.30;18.07;;;;;;;-145.69;100.00;73950.22;5054578;28;20199;-77
2021/12/22 10:06:29;;;;;;;37.07;16.07;;;;;;;-145.69;100.00;73938.28;5054678;28;20547;-78
2021/12/22 10:08:58;;;;;;;41.57;16.07;;;;;;;-145.69;100.00;73932.31;5054328;28;20720;-77
2021/12/22 10:11:26;;;;;;;43.27;16.77;;;;;;;-145.69;100.00;73922.34;5054316;28;20265;-77
2021/12/22 10:13:53;;;;;;;45.93;16.70;;;;;;;-145.69;100.00;73926.34;5054454;28;20231;-76
2021/12/22 10:16:21;;;;;;;40.87;16.53;;;;;;;-145.69;100.00;73920.38;5054670;28;20572;-77
2021/12/22 10:18:49;;;;;;;42.63;17.07;;;;;;;-145.69;100.00;73920.38;5054364;28;20249;-77
2021/12/22 10:21:18;;;;;;;45.13;17.23;;;;;;;-145.69;100.00;73924.34;5054307;28;20293;-77
2021/12/22 10:23:46;;;;;;;43.07;15.03;;;;;;;-145.69;100.00;73930.31;5054237;28;20257;-76
2021/12/22 10:26:16;;;;;;;43.00;17.27;;;;;;;-145.69;100.00;73926.34;5054202;28;20566;-77
2021/12/22 10:28:52;;;;;;;41.70;16.50;;;;;;;-145.69;100.00;73926.34;5054418;28;20286;-78
2021/12/22 10:31:27;;;;;;;46.83;16.97;;;;;;;-145.69;100.00;73918.38;5054248;28;20256;-77
2021/12/22 10:33:55;;;;;;;43.40;16.80;;;;;;;-145.69;100.00;73908.41;5054237;28;20202;-77
2021/12/22 10:36:22;;;;;;;40.67;16.47;;;;;;;-145.69;100.00;73906.44;5054011;28;20199;-78
2021/12/22 10:38:54;;;;;;;45.80;17.33;;;;;;;-145.69;100.00;73900.44;5053314;28;20196;-77
2021/12/22 10:41:22;;;;;;;43.20;16.63;;;;;;;-145.69;100.00;73896.47;5053767;28;20708;-77
2021/12/22 10:43:51;;;;;;;43.00;16.23;;;;;;;-145.69;100.00;73890.50;5054027;28;20601;-75
2021/12/22 10:46:26;;;;;;;45.67;18.23;;;;;;;-145.69;100.00;73874.56;5053747;28;20207;-76
2021/12/22 10:49:20;;;;;;;46.13;17.63;;;;;;;-145.69;100.00;73864.63;5053656;28;20214;-76
2021/12/22 10:51:56;;;;;;;41.77;15.10;;;;;;;-145.69;100.00;73852.66;5053943;28;20206;-76
2021/12/22 10:54:31;;;;;;;46.00;17.57;;;;;;;-145.69;100.00;73848.69;5053769;28;20666;-76
2021/12/22 10:57:00;;;;;;;42.53;16.10;;;;;;;-145.69;100.00;73846.69;5053794;28;20227;-76
2021/12/22 10:59:28;;;;;;;43.33;17.73;;;;;;;-145.69;100.00;73820.81;5053461;28;20199;-76
2021/12/22 11:02:06;;;;;;;38.20;16.10;;;;;;;-145.69;100.00;73822.81;5053550;28;20231;-76
2021/12/22 11:04:34;;;;;;;42.30;16.50;;;;;;;-145.69;100.00;73810.84;5053567;28;20235;-76
2021/12/22 11:07:08;;;;;;;44.43;16.73;;;;;;;-145.69;100.00;73808.88;5053444;28;20555;-77
2021/12/22 11:09:36;;;;;;;48.03;17.53;;;;;;;-145.69;100.00;73794.94;5053152;28;20200;-76